< Cyclone 202227 2022 Season Cyclone 202230 >
Cyclone 202228 (Charlotte)
General InformationTrack Information on Google MapsDetailed Wind InformationList of All Images || ResourceGoogle EarthGE AnimationAtom FeedGeoJSON
Detalied Best Track (Time Zone = UTC)
Year Month Day Hour Lat. Long. Pressure (hPa) Wind (kt) Class Image Chart
2022 3 18 18 -11.0 118.9 1008 20 2 Image --
2022 3 19 00 -11.1 118.1 1007 20 2 Image --
2022 3 19 06 -11.1 117.5 1002 25 2 Image --
2022 3 19 12 -11.3 116.9 1003 25 2 Image --
2022 3 19 18 -11.4 116.0 1001 30 2 Image --
2022 3 20 00 -11.8 115.1 1001 35 3 Image --
2022 3 20 06 -12.4 114.5 1000 35 3 Image --
2022 3 20 12 -12.9 113.8 997 40 3 Image --
2022 3 20 18 -13.9 113.4 995 45 3 Image --
2022 3 21 00 -14.8 112.1 992 50 4 Image --
2022 3 21 06 -15.2 111.1 991 50 4 Image --
2022 3 21 12 -15.9 110.4 988 55 4 Image --
2022 3 21 18 -16.3 110.0 979 65 5 Image --
2022 3 21 21 -16.4 109.6 957 90 5 Image --
2022 3 22 00 -16.5 109.3 957 90 5 Image --
2022 3 22 06 -17.0 109.1 957 90 5 Image --
2022 3 22 12 -17.5 109.0 956 90 5 Image --
2022 3 22 18 -17.7 108.9 965 80 5 Image --
2022 3 23 00 -18.4 108.8 973 70 5 Image --
2022 3 23 06 -18.9 108.4 977 65 5 Image --
2022 3 23 12 -19.1 108.1 983 55 4 Image --
2022 3 23 18 -19.2 107.6 1001 30 2 Image --
2022 3 24 00 -19.7 107.3 1001 30 2 Image --
2022 3 24 06 -20.9 107.3 1002 30 2 Image --
2022 3 24 12 -21.9 107.0 1002 30 2 Image --
2022 3 24 18 -24.0 106.8 1002 30 2 Image --
2022 3 25 00 -24.9 107.0 1002 30 2 Image --
2022 3 25 06 -27.4 107.8 1002 30 2 Image --
< Cyclone 202227 2022 Season Cyclone 202230 >

Help